Time;durP1;ratioP1;P1;durP2;ratioP2;P2;SDS_P1;SDS_P2;PMS_P1;PMS_P2;Temp;Humidity;BMP_temperature;BMP_pressure;BME280_temperature;BME280_humidity;BME280_pressure;Samples;Min_cycle;Max_cycle;Signal;HPM_P1;HPM_P2
2023/03/22 00:01:40;;;;;;;9.00;1.42;;;9.80;99.90;;;;;;5070805;28;20040;-59
2023/03/22 00:04:08;;;;;;;7.65;1.30;;;9.70;99.90;;;;;;5078556;28;20067;-59
2023/03/22 00:06:38;;;;;;;6.82;1.38;;;9.80;99.90;;;;;;5063624;28;20056;-59
2023/03/22 00:09:06;;;;;;;7.93;1.45;;;9.80;99.90;;;;;;5076579;28;20055;-59
2023/03/22 00:11:34;;;;;;;7.63;0.93;;;9.80;99.90;;;;;;5070429;28;20036;-59
2023/03/22 00:14:01;;;;;;;13.50;1.23;;;9.80;99.90;;;;;;5079307;28;20052;-57
2023/03/22 00:16:29;;;;;;;8.45;0.77;;;9.80;99.90;;;;;;5070243;28;20052;-58
2023/03/22 00:18:56;;;;;;;10.05;1.38;;;9.90;99.90;;;;;;5074000;28;20542;-59
2023/03/22 00:21:24;;;;;;;7.47;1.00;;;9.40;99.90;;;;;;5081674;28;20605;-60
2023/03/22 00:23:54;;;;;;;8.35;1.00;;;9.90;99.90;;;;;;5084595;28;20048;-60
2023/03/22 00:26:22;;;;;;;8.40;1.73;;;9.90;99.90;;;;;;5079669;28;20047;-59
2023/03/22 00:28:50;;;;;;;6.40;0.93;;;9.90;99.90;;;;;;5084548;28;20387;-59
2023/03/22 00:31:18;;;;;;;9.90;1.65;;;9.90;99.90;;;;;;5080688;28;20408;-58
2023/03/22 00:33:46;;;;;;;11.30;1.50;;;9.90;99.90;;;;;;5076473;28;20059;-59
2023/03/22 00:36:14;;;;;;;7.55;1.60;;;9.90;99.90;;;;;;5085038;28;20047;-60
2023/03/22 00:38:42;;;;;;;11.77;1.20;;;9.90;99.90;;;;;;5081966;28;20053;-59
2023/03/22 00:41:12;;;;;;;7.60;1.33;;;9.90;99.90;;;;;;5084654;28;20051;-59
2023/03/22 00:43:41;;;;;;;17.75;2.03;;;9.90;99.90;;;;;;5081648;28;20506;-58
2023/03/22 00:46:10;;;;;;;9.52;1.13;;;9.90;99.90;;;;;;5077951;28;20044;-58
2023/03/22 00:48:38;;;;;;;7.97;0.98;;;9.90;99.90;;;;;;5083271;28;20040;-58
2023/03/22 00:51:07;;;;;;;5.57;0.55;;;10.00;99.90;;;;;;5085040;28;20055;-58
2023/03/22 00:53:39;;;;;;;8.07;0.90;;;9.90;99.90;;;;;;5081322;28;20071;-59
2023/03/22 00:56:14;;;;;;;6.53;0.80;;;9.90;99.90;;;;;;5080038;28;20111;-59
2023/03/22 00:58:48;;;;;;;9.35;1.70;;;10.00;99.90;;;;;;5085645;28;20131;-59
2023/03/22 01:01:16;;;;;;;5.75;0.88;;;10.00;99.90;;;;;;5103823;28;20039;-59
2023/03/22 01:03:49;;;;;;;8.65;1.35;;;10.00;99.90;;;;;;5069441;28;20056;-59
2023/03/22 01:06:17;;;;;;;6.07;0.90;;;10.10;99.90;;;;;;5085582;28;20043;-59
2023/03/22 01:08:45;;;;;;;7.30;1.00;;;10.00;99.90;;;;;;5106799;27;20381;-59
2023/03/22 01:11:16;;;;;;;3.60;0.65;;;10.10;99.90;;;;;;5104022;28;20040;-60
2023/03/22 01:13:46;;;;;;;8.32;1.10;;;10.10;99.90;;;;;;5089841;28;20052;-59
2023/03/22 01:16:15;;;;;;;6.22;0.90;;;10.10;99.90;;;;;;5090464;28;20059;-60
2023/03/22 01:18:43;;;;;;;13.50;1.48;;;10.10;99.90;;;;;;5072221;28;20055;-60
2023/03/22 01:21:13;;;;;;;5.00;0.85;;;10.10;99.90;;;;;;5088062;28;20067;-59
2023/03/22 01:23:41;;;;;;;8.02;1.25;;;10.10;99.90;;;;;;5105252;28;20040;-60
2023/03/22 01:26:08;;;;;;;9.63;1.10;;;10.10;99.90;;;;;;5089757;28;20193;-61
2023/03/22 01:28:39;;;;;;;4.90;0.70;;;10.10;99.90;;;;;;5084714;28;20051;-59
2023/03/22 01:31:07;;;;;;;7.18;1.00;;;10.10;99.90;;;;;;5086509;28;20052;-58
2023/03/22 01:33:37;;;;;;;;;;;10.10;99.90;;;;;;5085520;28;20488;-58
2023/03/22 01:36:08;;;;;;;5.82;0.75;;;10.10;99.90;;;;;;5069873;28;19927;-61
2023/03/22 01:38:35;;;;;;;4.63;0.75;;;10.10;99.90;;;;;;5074683;28;20056;-61
2023/03/22 01:41:03;;;;;;;6.38;1.00;;;10.10;99.90;;;;;;5083742;28;20057;-59
2023/03/22 01:43:38;;;;;;;7.38;1.23;;;10.10;99.90;;;;;;5070429;28;20032;-60
2023/03/22 01:46:12;;;;;;;9.38;1.13;;;10.00;99.90;;;;;;5076775;28;20032;-61
2023/03/22 01:48:47;;;;;;;3.33;0.95;;;10.00;99.90;;;;;;5076889;28;20047;-57
2023/03/22 01:51:24;;;;;;;4.28;1.42;;;9.90;99.90;;;;;;5049371;28;20222;-58
2023/03/22 01:54:39;;;;;;;2.53;0.77;;;9.90;99.90;;;;;;5066558;28;20558;-61
2023/03/22 01:57:20;;;;;;;6.15;0.88;;;9.90;99.90;;;;;;5083831;28;20060;-59
2023/03/22 01:59:49;;;;;;;3.05;0.70;;;9.90;99.90;;;;;;5076576;28;20040;-60
2023/03/22 02:02:29;;;;;;;4.00;0.68;;;9.80;99.90;;;;;;5104597;28;20403;-59
2023/03/22 02:05:12;;;;;;;6.57;0.85;;;9.80;99.90;;;;;;5088135;28;20044;-60
2023/03/22 02:07:42;;;;;;;3.97;0.60;;;9.80;99.90;;;;;;5085619;28;20041;-60
2023/03/22 02:10:28;;;;;;;5.25;1.17;;;9.80;99.90;;;;;;5080339;28;20041;-60
2023/03/22 02:13:18;;;;;;;6.13;1.10;;;9.80;99.90;;;;;;5083456;28;20051;-58
2023/03/22 02:16:09;;;;;;;2.08;1.05;;;9.80;99.90;;;;;;5089076;28;20051;-60
2023/03/22 02:19:07;;;;;;;2.13;0.73;;;9.80;99.90;;;;;;5073369;28;20040;-60
2023/03/22 02:21:40;;;;;;;6.32;1.50;;;9.80;99.90;;;;;;5087492;28;20063;-59
2023/03/22 02:24:46;;;;;;;9.00;1.52;;;9.80;99.90;;;;;;5086793;28;20379;-59
2023/03/22 02:27:33;;;;;;;6.70;0.85;;;9.80;99.90;;;;;;5006893;28;20445;-63
2023/03/22 02:30:36;;;;;;;7.90;1.23;;;9.80;99.90;;;;;;5071495;28;20327;-57
2023/03/22 02:33:22;;;;;;;4.80;0.70;;;9.80;99.90;;;;;;5084431;28;20052;-60
2023/03/22 02:35:53;;;;;;;4.57;0.55;;;9.80;99.90;;;;;;5109736;28;20043;-64
2023/03/22 02:38:29;;;;;;;5.85;0.80;;;9.80;99.90;;;;;;5102405;28;20047;-60
2023/03/22 02:41:06;;;;;;;6.23;0.60;;;9.80;99.90;;;;;;5082923;28;20036;-62
2023/03/22 02:43:40;;;;;;;2.17;0.70;;;9.80;99.90;;;;;;5110561;28;20667;-60
2023/03/22 02:46:17;;;;;;;3.38;0.60;;;9.80;99.90;;;;;;5110414;28;20088;-58
2023/03/22 02:49:18;;;;;;;5.75;0.52;;;9.80;99.90;;;;;;5108774;28;20047;-61
2023/03/22 02:51:55;;;;;;;3.03;0.80;;;9.80;99.90;;;;;;5103780;28;20040;-57
2023/03/22 02:54:31;;;;;;;6.47;0.95;;;9.80;99.90;;;;;;5102368;28;20044;-59
2023/03/22 02:57:06;;;;;;;7.00;0.88;;;9.80;99.90;;;;;;5111668;28;20043;-57
2023/03/22 02:59:38;;;;;;;1.17;0.40;;;9.80;99.90;;;;;;5111686;28;20062;-56
2023/03/22 03:02:10;;;;;;;5.25;1.30;;;9.80;99.90;;;;;;5091850;28;20373;-57
2023/03/22 03:04:45;;;;;;;5.50;0.90;;;9.80;99.90;;;;;;5091525;28;20064;-59
2023/03/22 03:07:18;;;;;;;3.05;1.00;;;9.80;99.90;;;;;;5085900;28;20036;-57
2023/03/22 03:09:46;;;;;;;7.40;1.30;;;9.80;99.90;;;;;;5089673;28;20044;-56
2023/03/22 03:12:20;;;;;;;3.25;0.57;;;9.80;99.90;;;;;;5112056;28;20044;-57
2023/03/22 03:14:51;;;;;;;0.68;0.40;;;9.80;99.90;;;;;;5096515;27;20487;-56
2023/03/22 03:17:42;;;;;;;1.92;0.38;;;9.70;99.90;;;;;;5093872;28;20039;-56
2023/03/22 03:20:30;;;;;;;4.53;0.63;;;9.80;99.90;;;;;;5105971;28;20395;-56
2023/03/22 03:23:12;;;;;;;4.60;0.40;;;9.80;99.90;;;;;;5111104;28;20062;-58
2023/03/22 03:26:06;;;;;;;1.52;0.30;;;9.80;99.90;;;;;;5100845;28;20046;-58
2023/03/22 03:29:03;;;;;;;5.22;0.50;;;9.80;99.90;;;;;;5111297;28;20032;-57
2023/03/22 03:31:43;;;;;;;1.30;0.43;;;9.80;99.90;;;;;;5111151;28;20062;-57
2023/03/22 03:34:44;;;;;;;3.08;0.30;;;9.80;99.90;;;;;;5111680;28;20517;-57
2023/03/22 03:37:18;;;;;;;1.60;0.30;;;9.80;99.90;;;;;;5024837;28;20070;-56
2023/03/22 03:39:53;;;;;;;2.75;0.30;;;9.80;99.90;;;;;;5108626;28;20046;-57
2023/03/22 03:42:26;;;;;;;2.72;0.60;;;9.80;99.90;;;;;;5092351;28;20044;-57
2023/03/22 03:44:55;;;;;;;3.13;0.70;;;9.90;99.90;;;;;;5101251;28;20055;-58
2023/03/22 03:47:24;;;;;;;6.43;0.50;;;9.90;99.90;;;;;;5111513;28;20039;-58
2023/03/22 03:49:51;;;;;;;1.08;0.40;;;9.90;99.90;;;;;;5089765;28;20040;-58
2023/03/22 03:52:23;;;;;;;1.33;0.40;;;9.90;99.90;;;;;;5098232;28;20036;-58
2023/03/22 03:54:51;;;;;;;3.13;0.40;;;10.00;99.90;;;;;;5109340;28;20040;-59
2023/03/22 03:57:26;;;;;;;6.60;0.50;;;10.00;99.90;;;;;;5110323;28;20039;-60
2023/03/22 03:59:53;;;;;;;1.17;0.40;;;10.00;99.90;;;;;;5093395;28;20044;-57
2023/03/22 04:02:40;;;;;;;0.40;0.40;;;10.00;99.90;;;;;;5111458;28;20035;-59
2023/03/22 04:05:17;;;;;;;2.83;0.47;;;10.00;99.90;;;;;;5079213;28;20040;-59
2023/03/22 04:07:45;;;;;;;0.57;0.38;;;10.10;99.90;;;;;;5075355;28;20055;-61
2023/03/22 04:10:15;;;;;;;1.17;0.30;;;10.10;99.90;;;;;;5082117;28;20039;-62
2023/03/22 04:12:42;;;;;;;2.17;0.50;;;10.10;99.90;;;;;;5115557;28;20036;-59
2023/03/22 04:15:16;;;;;;;2.60;0.60;;;10.10;99.90;;;;;;5094814;28;20048;-57
2023/03/22 04:17:49;;;;;;;2.97;0.38;;;10.10;99.90;;;;;;5110823;28;20052;-58
2023/03/22 04:20:18;;;;;;;1.75;0.40;;;10.10;99.90;;;;;;5092118;28;20043;-59
2023/03/22 04:22:47;;;;;;;4.25;0.60;;;10.10;99.90;;;;;;5114251;28;20052;-59
2023/03/22 04:25:16;;;;;;;0.50;0.20;;;10.10;99.90;;;;;;5114341;28;20601;-59
2023/03/22 04:27:54;;;;;;;0.57;0.20;;;10.20;99.90;;;;;;5114375;28;20047;-59
2023/03/22 04:30:23;;;;;;;0.47;0.15;;;10.20;99.90;;;;;;5113941;28;20809;-60
2023/03/22 04:33:06;;;;;;;2.53;0.40;;;10.30;99.90;;;;;;5114908;28;20055;-59
2023/03/22 04:35:55;;;;;;;1.98;0.20;;;10.30;99.90;;;;;;5097214;28;20043;-58
2023/03/22 04:38:30;;;;;;;0.38;0.20;;;10.30;99.90;;;;;;5097115;28;20486;-57
2023/03/22 04:40:58;;;;;;;1.20;0.20;;;10.40;99.90;;;;;;5086421;28;20059;-59
2023/03/22 04:43:40;;;;;;;2.00;0.52;;;10.40;99.90;;;;;;5082396;28;20051;-60
2023/03/22 04:46:13;;;;;;;0.90;0.20;;;10.50;99.90;;;;;;5093414;28;20044;-59
2023/03/22 04:48:47;;;;;;;1.00;0.30;;;10.50;99.90;;;;;;5093459;28;20054;-58
2023/03/22 04:51:16;;;;;;;2.30;0.60;;;10.50;99.90;;;;;;5067301;28;20044;-59
2023/03/22 04:53:59;;;;;;;2.45;0.60;;;10.50;99.90;;;;;;5076351;28;20110;-60
2023/03/22 04:56:26;;;;;;;5.50;0.82;;;10.50;99.90;;;;;;5093022;28;20040;-59
2023/03/22 04:58:54;;;;;;;8.90;1.58;;;10.50;99.90;;;;;;5106082;28;20596;-58
2023/03/22 05:01:22;;;;;;;7.43;2.00;;;10.40;99.90;;;;;;5093192;28;20047;-59
2023/03/22 05:03:59;;;;;;;10.77;1.33;;;10.40;99.90;;;;;;5092924;28;20044;-60
2023/03/22 05:06:27;;;;;;;11.48;1.75;;;10.40;99.90;;;;;;5094233;28;20051;-58
2023/03/22 05:09:06;;;;;;;16.70;2.00;;;10.30;99.90;;;;;;5076078;28;20044;-58
2023/03/22 05:11:34;;;;;;;10.50;1.60;;;10.30;99.90;;;;;;5096129;28;20040;-60
2023/03/22 05:14:24;;;;;;;13.10;1.65;;;10.20;99.90;;;;;;5103327;28;20060;-58
2023/03/22 05:16:52;;;;;;;11.95;2.00;;;10.20;99.90;;;;;;5096043;28;20048;-58
2023/03/22 05:19:21;;;;;;;27.45;2.72;;;10.10;99.90;;;;;;5095546;28;20036;-58
2023/03/22 05:21:56;;;;;;;12.63;1.63;;;10.10;99.90;;;;;;5090588;28;20055;-57
2023/03/22 05:24:31;;;;;;;10.38;2.03;;;10.00;99.90;;;;;;5075722;28;20040;-58
2023/03/22 05:27:00;;;;;;;17.30;2.20;;;9.90;99.90;;;;;;5092689;28;20064;-58
2023/03/22 05:29:27;;;;;;;25.27;2.17;;;9.90;99.90;;;;;;5092669;28;20548;-58
2023/03/22 05:32:05;;;;;;;21.70;3.38;;;9.90;99.90;;;;;;5098525;28;20488;-58
2023/03/22 05:34:34;;;;;;;19.75;2.75;;;9.80;99.90;;;;;;5095888;28;20048;-58
2023/03/22 05:37:15;;;;;;;18.42;2.70;;;9.80;99.90;;;;;;5096004;28;20044;-57
2023/03/22 05:40:08;;;;;;;18.77;2.00;;;9.70;99.90;;;;;;5098341;28;20491;-58
2023/03/22 05:42:41;;;;;;;19.73;2.75;;;9.70;99.90;;;;;;5083403;28;20439;-58
2023/03/22 05:45:16;;;;;;;12.75;2.78;;;9.60;99.90;;;;;;5096573;28;20039;-58
2023/03/22 05:47:48;;;;;;;27.23;3.75;;;9.60;99.90;;;;;;5089137;28;20040;-59
2023/03/22 05:50:22;;;;;;;18.10;2.72;;;9.50;99.90;;;;;;5108108;28;20042;-60
2023/03/22 05:52:50;;;;;;;;;;;9.50;99.90;;;;;;5109553;28;20046;-58
2023/03/22 05:55:43;;;;;;;24.20;3.95;;;9.50;99.90;;;;;;5108335;28;19919;-59
2023/03/22 05:58:17;;;;;;;20.40;3.33;;;9.40;99.90;;;;;;5074301;28;20043;-59
2023/03/22 06:00:48;;;;;;;23.90;3.00;;;9.30;99.90;;;;;;5076567;28;20047;-59
2023/03/22 06:03:47;;;;;;;19.95;3.30;;;9.30;99.90;;;;;;5099758;28;20577;-58
2023/03/22 06:06:30;;;;;;;22.85;3.10;;;9.20;99.90;;;;;;5081488;28;20032;-59
2023/03/22 06:09:19;;;;;;;17.58;2.58;;;9.20;99.90;;;;;;5106441;28;20051;-59
2023/03/22 06:11:51;;;;;;;20.13;2.90;;;9.10;99.90;;;;;;5087705;28;20047;-59
2023/03/22 06:14:19;;;;;;;30.73;3.95;;;9.10;99.90;;;;;;5082224;28;20058;-58
2023/03/22 06:17:04;;;;;;;23.45;4.22;;;9.00;99.90;;;;;;5090227;28;20052;-58
2023/03/22 06:19:32;;;;;;;24.83;3.10;;;9.00;99.90;;;;;;5092531;28;20279;-59
2023/03/22 06:22:03;;;;;;;18.38;3.70;;;8.90;99.90;;;;;;5091000;28;20051;-59
2023/03/22 06:24:33;;;;;;;29.13;3.45;;;8.90;99.90;;;;;;5071124;28;20479;-59
2023/03/22 06:27:03;;;;;;;23.70;3.63;;;8.80;99.90;;;;;;5071734;28;20048;-59
2023/03/22 06:29:35;;;;;;;13.35;2.70;;;8.70;99.90;;;;;;5088385;28;20047;-59
2023/03/22 06:32:05;;;;;;;27.38;3.58;;;8.70;99.90;;;;;;5088251;28;20043;-59
2023/03/22 06:34:33;;;;;;;28.30;4.40;;;8.70;99.90;;;;;;5091203;28;20063;-57
2023/03/22 06:37:01;;;;;;;26.98;3.55;;;8.60;99.90;;;;;;5072144;28;20048;-57
2023/03/22 06:39:39;;;;;;;26.83;4.35;;;8.50;99.90;;;;;;5071388;28;20055;-59
2023/03/22 06:42:08;;;;;;;27.23;4.07;;;8.50;99.90;;;;;;5070879;28;20048;-59
2023/03/22 06:44:38;;;;;;;25.35;3.58;;;8.40;99.90;;;;;;5084029;28;20250;-60
2023/03/22 06:47:12;;;;;;;33.53;3.65;;;8.40;99.90;;;;;;5071947;28;20048;-60
2023/03/22 06:49:59;;;;;;;30.08;4.40;;;8.40;99.90;;;;;;5090630;28;20451;-58
2023/03/22 06:52:44;;;;;;;23.00;3.45;;;8.30;99.90;;;;;;5108819;28;20039;-59
2023/03/22 06:55:12;;;;;;;28.92;4.03;;;8.20;99.90;;;;;;5090645;28;20043;-59
2023/03/22 06:57:40;;;;;;;39.45;4.20;;;8.20;99.90;;;;;;5089582;28;20386;-57
2023/03/22 07:00:09;;;;;;;27.50;3.50;;;8.10;99.90;;;;;;5091882;28;20389;-58
2023/03/22 07:02:37;;;;;;;28.88;4.03;;;8.10;99.90;;;;;;5103132;28;20047;-60
2023/03/22 07:05:30;;;;;;;26.90;3.45;;;8.00;99.90;;;;;;5090091;28;20061;-59
2023/03/22 07:07:58;;;;;;;33.92;4.28;;;;;;;;;;5088714;28;20055;-59
2023/03/22 07:10:26;;;;;;;14.55;2.72;;;8.00;99.90;;;;;;5090767;28;20044;-59
2023/03/22 07:12:54;;;;;;;30.00;4.47;;;8.00;99.90;;;;;;5089854;28;20051;-58
2023/03/22 07:15:25;;;;;;;39.15;4.10;;;8.10;99.90;;;;;;5107449;28;20048;-59
2023/03/22 07:18:03;;;;;;;24.45;3.38;;;8.10;99.90;;;;;;5086898;28;20050;-59
2023/03/22 07:20:37;;;;;;;21.85;3.17;;;8.10;99.90;;;;;;5105210;28;20042;-58
2023/03/22 07:23:05;;;;;;;24.40;3.65;;;8.10;99.90;;;;;;5100679;28;20043;-58
2023/03/22 07:25:39;;;;;;;36.95;4.90;;;8.10;99.90;;;;;;5089368;28;20043;-58
2023/03/22 07:28:22;;;;;;;31.10;4.03;;;8.10;99.90;;;;;;5086150;28;20048;-57
2023/03/22 07:31:00;;;;;;;21.00;3.53;;;8.10;99.90;;;;;;5089538;28;20044;-58
2023/03/22 07:33:30;;;;;;;23.73;3.45;;;8.10;99.90;;;;;;5082610;28;20059;-59
2023/03/22 07:35:58;;;;;;;23.58;3.50;;;8.20;99.90;;;;;;5071982;28;20047;-59
2023/03/22 07:38:25;;;;;;;26.83;3.88;;;8.20;99.90;;;;;;5086231;28;20035;-59
2023/03/22 07:40:54;;;;;;;34.00;6.68;;;8.20;99.90;;;;;;5070339;28;20040;-58
2023/03/22 07:43:25;;;;;;;19.27;2.75;;;8.20;99.90;;;;;;5088628;28;20410;-59
2023/03/22 07:46:04;;;;;;;30.00;4.53;;;8.30;99.90;;;;;;5086544;28;20399;-58
2023/03/22 07:49:12;;;;;;;27.20;3.53;;;8.30;99.90;;;;;;5075752;28;20406;-58
2023/03/22 07:51:40;;;;;;;;;;;8.30;99.90;;;;;;5107567;28;20740;-58
2023/03/22 07:54:13;;;;;;;27.75;4.28;;;8.40;99.90;;;;;;5081463;28;20263;-58
2023/03/22 07:57:00;;;;;;;24.88;3.83;;;8.40;99.90;;;;;;5105217;28;20414;-59
2023/03/22 07:59:28;;;;;;;28.38;3.40;;;8.50;99.90;;;;;;5105957;28;20051;-57
2023/03/22 08:01:56;;;;;;;31.67;5.85;;;8.50;99.90;;;;;;5099215;28;20195;-59
2023/03/22 08:04:29;;;;;;;30.98;3.85;;;8.60;99.90;;;;;;5073045;28;20048;-59
2023/03/22 08:07:24;;;;;;;27.77;4.18;;;8.60;99.90;;;;;;5090887;28;20047;-59
2023/03/22 08:09:52;;;;;;;30.40;3.80;;;8.70;99.90;;;;;;5073353;28;20044;-58
2023/03/22 08:12:19;;;;;;;28.35;3.95;;;8.80;99.90;;;;;;5094811;28;20039;-59
2023/03/22 08:14:53;;;;;;;37.33;4.68;;;8.80;99.90;;;;;;5087357;28;20040;-58
2023/03/22 08:17:25;;;;;;;21.02;3.67;;;8.90;99.90;;;;;;5086314;28;20044;-58
2023/03/22 08:19:55;;;;;;;27.50;4.53;;;8.90;99.90;;;;;;5090532;28;20036;-58
2023/03/22 08:22:38;;;;;;;29.58;3.50;;;9.00;99.90;;;;;;5089933;28;20054;-59
2023/03/22 08:25:26;;;;;;;20.30;3.35;;;9.00;99.90;;;;;;5086552;28;20040;-59
2023/03/22 08:27:59;;;;;;;22.77;3.67;;;9.00;99.90;;;;;;5094265;28;20051;-59
2023/03/22 08:30:27;;;;;;;21.85;4.10;;;9.10;99.90;;;;;;5079543;28;20036;-58
2023/03/22 08:32:55;;;;;;;25.35;3.20;;;9.10;99.90;;;;;;5079271;28;20059;-58
2023/03/22 08:35:24;;;;;;;26.67;3.72;;;9.20;99.90;;;;;;5103243;28;20395;-59
2023/03/22 08:37:56;;;;;;;29.23;3.40;;;9.20;99.90;;;;;;5082633;28;20399;-58
2023/03/22 08:40:32;;;;;;;20.33;3.30;;;9.20;99.90;;;;;;5100546;28;20040;-59
2023/03/22 08:43:01;;;;;;;;;;;9.30;99.90;;;;;;5091147;28;20094;-59
2023/03/22 08:45:30;;;;;;;20.70;2.97;;;9.30;99.90;;;;;;5075259;28;19920;-59
2023/03/22 08:48:05;;;;;;;28.40;3.83;;;9.30;99.90;;;;;;5086749;28;20051;-59
2023/03/22 08:50:50;;;;;;;40.90;4.68;;;9.30;99.90;;;;;;5078298;28;20047;-58
2023/03/22 08:53:25;;;;;;;28.75;3.60;;;9.40;99.90;;;;;;5084544;28;20062;-59
2023/03/22 08:56:08;;;;;;;30.73;4.60;;;9.40;99.90;;;;;;5076938;28;20471;-59
2023/03/22 08:58:45;;;;;;;34.05;5.68;;;9.40;99.90;;;;;;5092508;28;20055;-59
2023/03/22 09:01:16;;;;;;;30.38;4.38;;;9.50;99.90;;;;;;5108081;28;20075;-59
2023/03/22 09:03:53;;;;;;;24.27;4.45;;;9.60;99.90;;;;;;5092013;28;20055;-59
2023/03/22 09:06:21;;;;;;;24.20;3.53;;;9.50;99.90;;;;;;5109415;28;20035;-59
2023/03/22 09:08:51;;;;;;;24.35;3.45;;;9.60;99.90;;;;;;5110504;28;20036;-59
2023/03/22 09:11:21;;;;;;;25.88;3.10;;;9.60;99.90;;;;;;5081857;28;20040;-59
2023/03/22 09:13:50;;;;;;;23.75;2.80;;;9.70;99.90;;;;;;5090560;28;20399;-58
2023/03/22 09:16:18;;;;;;;16.13;2.40;;;9.70;99.90;;;;;;5092882;28;20035;-58
2023/03/22 09:18:47;;;;;;;21.85;2.83;;;9.70;99.90;;;;;;5092059;28;20039;-59
2023/03/22 09:21:17;;;;;;;17.50;2.72;;;9.80;99.90;;;;;;5088302;28;20036;-58
2023/03/22 09:23:52;;;;;;;24.60;3.38;;;9.80;99.90;;;;;;5093625;28;20040;-59
2023/03/22 09:26:26;;;;;;;25.20;2.83;;;9.90;99.90;;;;;;5055631;28;20055;-59
2023/03/22 09:28:54;;;;;;;13.38;3.05;;;9.90;99.90;;;;;;5080306;28;20530;-58
2023/03/22 09:31:22;;;;;;;26.00;2.95;;;10.00;99.90;;;;;;5073536;28;20059;-60
2023/03/22 09:34:01;;;;;;;25.10;3.22;;;10.10;99.90;;;;;;5072351;28;20056;-59
2023/03/22 09:36:33;;;;;;;30.75;3.58;;;10.20;99.90;;;;;;5084406;28;20046;-60
2023/03/22 09:39:05;;;;;;;20.95;3.38;;;10.30;99.90;;;;;;5107657;28;20036;-60
2023/03/22 09:41:37;;;;;;;27.92;3.55;;;10.20;99.90;;;;;;5108025;28;20039;-60
2023/03/22 09:44:24;;;;;;;29.45;3.47;;;10.30;99.90;;;;;;5089972;28;20051;-58
2023/03/22 09:46:55;;;;;;;19.10;2.13;;;10.40;99.90;;;;;;5105235;28;20039;-60
2023/03/22 09:49:27;;;;;;;32.13;3.90;;;10.40;99.90;;;;;;5107675;28;20375;-59
2023/03/22 09:51:57;;;;;;;25.20;4.18;;;10.50;99.90;;;;;;5110794;28;20399;-59
2023/03/22 09:54:35;;;;;;;23.58;4.53;;;10.50;99.90;;;;;;5101758;28;20084;-60
2023/03/22 09:57:11;;;;;;;29.80;4.43;;;10.60;99.90;;;;;;5109476;28;20039;-59
2023/03/22 10:00:13;;;;;;;25.20;4.32;;;10.70;99.90;;;;;;5103469;28;20054;-59
2023/03/22 10:03:18;;;;;;;29.58;4.00;;;10.80;99.90;;;;;;5080772;28;20064;-59
2023/03/22 10:06:10;;;;;;;22.75;3.85;;;10.80;99.90;;;;;;5103588;28;20048;-59
2023/03/22 10:08:53;;;;;;;21.45;2.78;;;10.90;99.90;;;;;;5109683;28;20054;-61
2023/03/22 10:11:27;;;;;;;22.67;3.40;;;11.10;99.90;;;;;;5108976;28;20048;-60
2023/03/22 10:14:19;;;;;;;29.23;4.13;;;11.40;99.90;;;;;;5079639;28;20055;-61
2023/03/22 10:16:47;;;;;;;17.58;3.53;;;11.40;99.90;;;;;;5088725;28;20180;-59
2023/03/22 10:19:25;;;;;;;18.95;3.63;;;11.60;99.90;;;;;;5105873;28;20058;-60
2023/03/22 10:21:56;;;;;;;20.15;2.63;;;12.00;99.90;;;;;;5090125;28;20055;-59
2023/03/22 10:24:30;;;;;;;22.75;4.32;;;12.00;99.90;;;;;;5105110;28;20042;-60
2023/03/22 10:26:58;;;;;;;22.55;4.63;;;12.10;99.90;;;;;;5074718;28;20047;-58
2023/03/22 10:29:42;;;;;;;16.75;2.75;;;12.20;99.90;;;;;;5106595;28;20479;-59
2023/03/22 10:32:14;;;;;;;17.52;3.47;;;12.40;99.90;;;;;;5109129;28;20051;-59
2023/03/22 10:34:42;;;;;;;19.85;2.83;;;12.50;99.90;;;;;;5079968;28;20058;-59
2023/03/22 10:37:20;;;;;;;20.08;3.60;;;12.60;99.90;;;;;;5090813;28;20506;-60
2023/03/22 10:39:52;;;;;;;14.80;2.55;;;12.70;99.90;;;;;;5106449;28;20052;-59
2023/03/22 10:42:25;;;;;;;15.93;4.55;;;12.70;99.90;;;;;;5107337;28;20514;-58
2023/03/22 10:45:10;;;;;;;17.17;2.25;;;12.80;99.90;;;;;;5088271;28;20047;-59
2023/03/22 10:47:48;;;;;;;21.40;2.50;;;12.80;99.90;;;;;;5104560;28;20051;-60
2023/03/22 10:50:45;;;;;;;11.63;2.15;;;12.80;99.90;;;;;;5106693;28;20040;-59
2023/03/22 10:53:33;;;;;;;18.80;4.13;;;12.70;99.90;;;;;;5084286;28;20407;-59
2023/03/22 10:56:01;;;;;;;22.27;3.05;;;12.60;99.90;;;;;;5074826;28;20055;-60
2023/03/22 10:58:31;;;;;;;17.70;3.58;;;12.60;99.90;;;;;;5105214;28;20040;-60
2023/03/22 11:01:07;;;;;;;14.60;2.90;;;12.60;99.90;;;;;;5108281;28;20051;-60
2023/03/22 11:03:38;;;;;;;22.75;3.63;;;12.60;99.90;;;;;;5105685;28;20414;-60
2023/03/22 11:06:09;;;;;;;13.40;3.00;;;12.50;99.90;;;;;;5089101;28;20047;-59
2023/03/22 11:08:56;;;;;;;18.45;2.20;;;12.50;99.90;;;;;;5108272;28;20044;-61
2023/03/22 11:11:34;;;;;;;22.95;3.17;;;12.70;99.90;;;;;;5088160;28;20054;-59
2023/03/22 11:14:06;;;;;;;17.42;2.72;;;12.70;99.90;;;;;;5107126;28;20398;-59
2023/03/22 11:16:51;;;;;;;12.52;2.08;;;12.80;99.90;;;;;;5107220;28;20054;-60
2023/03/22 11:19:39;;;;;;;20.30;2.58;;;12.90;99.90;;;;;;5106041;28;20048;-58
2023/03/22 11:22:21;;;;;;;11.75;2.88;;;12.90;99.90;;;;;;5103946;28;20044;-59
2023/03/22 11:24:50;;;;;;;18.40;2.20;;;12.90;99.90;;;;;;5102717;28;20129;-60
2023/03/22 11:27:20;;;;;;;22.50;4.07;;;13.00;99.90;;;;;;5107572;28;20043;-60
2023/03/22 11:29:54;;;;;;;16.00;2.42;;;13.10;99.90;;;;;;5097289;28;20051;-59
2023/03/22 11:32:27;;;;;;;19.83;3.45;;;13.10;99.90;;;;;;5108658;28;20044;-60
2023/03/22 11:35:29;;;;;;;12.80;2.00;;;13.10;99.90;;;;;;5077012;28;20120;-60
2023/03/22 11:37:58;;;;;;;18.75;2.95;;;13.00;99.90;;;;;;5103408;28;20039;-59
2023/03/22 11:40:30;;;;;;;12.65;2.70;;;13.00;99.90;;;;;;5095091;28;20059;-59
2023/03/22 11:43:18;;;;;;;21.55;3.00;;;13.20;99.90;;;;;;5106768;28;20047;-61
2023/03/22 11:45:50;;;;;;;14.95;2.50;;;13.50;99.90;;;;;;5106005;28;20487;-59
2023/03/22 11:48:22;;;;;;;15.45;2.70;;;13.70;99.90;;;;;;5080545;28;20044;-61
2023/03/22 11:50:53;;;;;;;18.38;3.03;;;14.00;99.90;;;;;;5104623;28;20044;-60
2023/03/22 11:53:25;;;;;;;23.65;3.22;;;14.20;99.90;;;;;;5102948;28;20052;-59
2023/03/22 11:55:56;;;;;;;11.93;1.98;;;14.40;99.90;;;;;;5093083;28;20051;-60
2023/03/22 11:58:38;;;;;;;21.73;2.65;;;14.80;98.50;;;;;;5100989;28;20048;-61
2023/03/22 12:01:26;;;;;;;16.90;2.88;;;14.90;97.60;;;;;;5103648;28;20411;-61
2023/03/22 12:03:56;;;;;;;19.08;2.95;;;14.90;98.30;;;;;;5102679;28;20039;-59
2023/03/22 12:06:27;;;;;;;16.60;3.47;;;15.10;99.50;;;;;;5108135;28;20047;-60
2023/03/22 12:09:04;;;;;;;15.50;2.70;;;15.20;98.10;;;;;;5104640;28;20048;-59
2023/03/22 12:11:44;;;;;;;23.80;3.15;;;15.10;98.30;;;;;;5106824;28;20067;-60
2023/03/22 12:14:31;;;;;;;15.77;3.50;;;14.90;99.20;;;;;;5088463;28;20059;-60
2023/03/22 12:17:09;;;;;;;20.25;3.17;;;15.00;99.90;;;;;;5103988;28;20055;-61
2023/03/22 12:19:50;;;;;;;17.95;2.80;;;15.10;99.30;;;;;;5101387;28;20509;-60
2023/03/22 12:22:42;;;;;;;17.40;2.50;;;15.30;97.30;;;;;;5093858;28;20055;-61
2023/03/22 12:25:14;;;;;;;18.67;2.65;;;15.30;97.40;;;;;;5101874;28;20047;-60
2023/03/22 12:27:49;;;;;;;13.82;2.55;;;15.50;95.80;;;;;;5105937;28;20054;-60
2023/03/22 12:30:23;;;;;;;20.92;3.50;;;15.50;96.30;;;;;;5100443;28;20054;-60
2023/03/22 12:33:01;;;;;;;15.48;2.13;;;16.20;93.60;;;;;;5101905;28;20066;-60
2023/03/22 12:35:32;;;;;;;17.60;3.38;;;16.70;93.20;;;;;;5109280;28;20054;-60
2023/03/22 12:38:26;;;;;;;16.90;2.60;;;16.60;93.10;;;;;;5109233;28;20044;-60
2023/03/22 12:40:59;;;;;;;20.35;3.05;;;17.30;91.60;;;;;;5086182;28;20058;-61
2023/03/22 12:43:47;;;;;;;12.40;2.13;;;17.30;91.90;;;;;;5096443;28;20051;-61
2023/03/22 12:46:25;;;;;;;16.10;2.25;;;16.80;91.20;;;;;;5092729;28;20050;-61
2023/03/22 12:49:26;;;;;;;13.80;2.60;;;16.80;91.30;;;;;;5108208;28;20044;-60
2023/03/22 12:52:25;;;;;;;15.20;3.00;;;16.10;92.40;;;;;;5100702;28;20046;-61
2023/03/22 12:55:05;;;;;;;14.20;2.38;;;15.60;95.60;;;;;;5104921;28;20050;-60
2023/03/22 12:57:32;;;;;;;16.88;2.42;;;15.60;96.40;;;;;;5110646;28;20070;-60
2023/03/22 13:00:14;;;;;;;20.92;2.88;;;15.70;94.70;;;;;;5111622;28;20044;-60
2023/03/22 13:02:51;;;;;;;13.88;2.45;;;15.70;94.70;;;;;;5066753;28;20032;-59
2023/03/22 13:05:19;;;;;;;15.23;2.10;;;16.00;94.00;;;;;;5110504;28;20047;-61
2023/03/22 13:07:46;;;;;;;14.07;1.80;;;16.50;92.20;;;;;;5111098;28;20398;-61
2023/03/22 13:10:30;;;;;;;13.70;2.97;;;16.50;92.30;;;;;;5110485;28;20056;-60
2023/03/22 13:13:21;;;;;;;12.13;2.00;;;16.60;91.60;;;;;;5109944;27;20051;-62
2023/03/22 13:16:07;;;;;;;10.45;2.13;;;16.60;91.50;;;;;;5091643;28;20529;-59
2023/03/22 13:18:37;;;;;;;12.85;2.25;;;16.90;91.40;;;;;;5105994;28;20036;-61
2023/03/22 13:21:25;;;;;;;12.15;2.00;;;17.10;90.70;;;;;;5110372;28;20051;-61
2023/03/22 13:24:08;;;;;;;10.18;2.10;;;17.20;87.80;;;;;;5109885;28;20059;-59
2023/03/22 13:26:38;;;;;;;11.52;2.00;;;17.20;87.60;;;;;;5089989;28;20048;-60
2023/03/22 13:29:32;;;;;;;9.85;2.03;;;17.30;88.70;;;;;;5091813;28;20051;-61
2023/03/22 13:32:03;;;;;;;12.55;2.00;;;17.80;85.10;;;;;;5108242;28;20050;-61